Time;durP1;ratioP1;P1;durP2;ratioP2;P2;SDS_P1;SDS_P2;PMS_P1;PMS_P2;Temp;Humidity;BMP_temperature;BMP_pressure;BME280_temperature;BME280_humidity;BME280_pressure;Samples;Min_cycle;Max_cycle;Signal;HPM_P1;HPM_P2
2023/08/04 00:00:09;;;;;;;4.17;1.50;;;13.80;99.90;;;;;;5058456;28;20194;-56
2023/08/04 00:02:36;;;;;;;0.97;0.97;;;13.80;99.90;;;;;;5063427;28;20329;-56
2023/08/04 00:05:02;;;;;;;2.33;1.93;;;13.80;99.90;;;;;;5061875;28;21082;-57
2023/08/04 00:07:28;;;;;;;1.90;1.30;;;13.80;99.90;;;;;;5065053;28;20417;-57
2023/08/04 00:09:53;;;;;;;1.30;1.20;;;13.80;99.90;;;;;;5063685;28;20431;-57
2023/08/04 00:12:19;;;;;;;2.80;1.10;;;13.80;99.90;;;;;;5062387;28;20259;-57
2023/08/04 00:14:46;;;;;;;2.40;1.10;;;13.90;99.90;;;;;;5061639;28;20191;-58
2023/08/04 00:17:12;;;;;;;1.73;1.43;;;13.80;99.90;;;;;;5063580;28;20198;-58
2023/08/04 00:19:39;;;;;;;3.43;1.73;;;13.90;99.90;;;;;;5061418;28;20526;-58
2023/08/04 00:22:04;;;;;;;3.90;1.40;;;13.80;99.90;;;;;;5059836;28;20202;-56
2023/08/04 00:24:30;;;;;;;4.20;1.30;;;13.70;99.90;;;;;;5064424;28;20425;-59
2023/08/04 00:26:55;;;;;;;1.53;1.43;;;13.70;99.90;;;;;;5056513;28;20689;-57
2023/08/04 00:29:21;;;;;;;1.90;1.23;;;13.60;99.90;;;;;;5057683;28;20175;-57
2023/08/04 00:31:46;;;;;;;9.40;1.67;;;13.50;99.90;;;;;;5068005;28;20221;-58
2023/08/04 00:34:12;;;;;;;1.60;1.17;;;13.50;99.90;;;;;;5068013;28;20201;-57
2023/08/04 00:36:38;;;;;;;4.20;1.67;;;13.40;99.90;;;;;;5058908;28;20171;-58
2023/08/04 00:39:03;;;;;;;2.80;1.40;;;13.40;99.90;;;;;;5064486;28;20251;-57
2023/08/04 00:41:29;;;;;;;2.90;1.77;;;13.30;99.90;;;;;;5058407;28;20178;-59
2023/08/04 00:43:55;;;;;;;2.60;1.40;;;13.30;99.90;;;;;;5066365;28;20213;-58
2023/08/04 00:46:22;;;;;;;2.17;1.30;;;13.30;99.90;;;;;;5068590;28;20672;-57
2023/08/04 00:48:48;;;;;;;1.90;1.40;;;13.30;99.90;;;;;;5070119;28;20171;-57
2023/08/04 00:51:13;;;;;;;2.13;1.40;;;13.30;99.90;;;;;;5077597;28;20417;-60
2023/08/04 00:53:40;;;;;;;2.17;1.33;;;13.40;99.90;;;;;;5074978;28;20202;-59
2023/08/04 00:56:05;;;;;;;2.77;1.70;;;13.40;99.90;;;;;;5071330;28;20270;-57
2023/08/04 00:58:33;;;;;;;5.13;1.57;;;13.50;99.90;;;;;;5060887;28;20519;-58
2023/08/04 01:01:02;;;;;;;3.27;1.87;;;13.50;99.90;;;;;;5065942;28;20178;-61
2023/08/04 01:03:28;;;;;;;2.83;1.80;;;13.50;99.90;;;;;;5061445;28;20480;-57
2023/08/04 01:06:07;;;;;;;4.47;1.60;;;13.50;99.90;;;;;;5062890;28;20437;-58
2023/08/04 01:08:34;;;;;;;5.47;1.60;;;13.50;99.90;;;;;;5064081;28;20883;-58
2023/08/04 01:11:12;;;;;;;2.23;1.20;;;13.50;99.90;;;;;;5055932;28;20433;-58
2023/08/04 01:13:39;;;;;;;1.43;1.33;;;13.40;99.90;;;;;;5065583;28;20455;-60
2023/08/04 01:16:07;;;;;;;1.47;1.37;;;13.40;99.90;;;;;;5065457;28;20960;-61
2023/08/04 01:18:33;;;;;;;3.07;1.40;;;13.40;99.90;;;;;;5060773;28;21043;-58
2023/08/04 01:21:05;;;;;;;3.73;1.30;;;13.40;99.90;;;;;;5064430;28;20511;-57
2023/08/04 01:23:32;;;;;;;1.67;1.40;;;13.40;99.90;;;;;;5056362;28;20284;-58
2023/08/04 01:25:59;;;;;;;3.53;1.67;;;13.50;99.90;;;;;;5058243;28;20474;-59
2023/08/04 01:28:25;;;;;;;4.33;1.50;;;13.50;99.90;;;;;;5060392;28;20428;-58
2023/08/04 01:30:54;;;;;;;2.33;1.73;;;13.60;99.90;;;;;;5065184;28;20817;-56
2023/08/04 01:33:21;;;;;;;2.47;1.73;;;13.60;99.90;;;;;;5065310;28;20491;-60
2023/08/04 01:35:46;;;;;;;7.40;1.87;;;13.50;99.90;;;;;;5061937;28;20425;-58
2023/08/04 01:38:12;;;;;;;2.90;1.57;;;13.60;99.90;;;;;;5063524;28;20485;-59
2023/08/04 01:40:38;;;;;;;2.53;1.60;;;13.60;99.90;;;;;;5061839;28;20586;-59
2023/08/04 01:43:04;;;;;;;1.40;1.30;;;13.50;99.90;;;;;;5062089;28;20202;-58
2023/08/04 01:45:30;;;;;;;2.80;1.60;;;13.50;99.90;;;;;;5062755;28;20186;-59
2023/08/04 01:47:55;;;;;;;3.13;1.77;;;13.50;99.90;;;;;;5065835;28;20952;-58
2023/08/04 01:50:21;;;;;;;1.93;1.70;;;13.40;99.90;;;;;;5062889;28;20749;-63
2023/08/04 01:52:47;;;;;;;2.40;1.30;;;13.40;99.90;;;;;;5059968;28;20241;-58
2023/08/04 01:55:12;;;;;;;2.50;1.47;;;13.30;99.90;;;;;;5058463;28;20170;-59
2023/08/04 01:57:38;;;;;;;2.30;1.43;;;13.30;99.90;;;;;;5058352;28;20182;-58
2023/08/04 02:00:05;;;;;;;3.67;1.50;;;13.20;99.90;;;;;;5057953;28;20556;-58
2023/08/04 02:02:30;;;;;;;1.40;1.30;;;13.20;99.90;;;;;;5060002;28;20194;-58
2023/08/04 02:04:56;;;;;;;4.43;1.37;;;13.20;99.90;;;;;;5056544;28;20424;-59
2023/08/04 02:07:22;;;;;;;1.90;1.40;;;13.20;99.90;;;;;;5051852;28;20175;-58
2023/08/04 02:09:47;;;;;;;3.13;1.60;;;13.20;99.90;;;;;;5067844;28;20178;-57
2023/08/04 02:12:13;;;;;;;3.70;1.60;;;13.20;99.90;;;;;;5060321;28;20195;-58
2023/08/04 02:14:38;;;;;;;1.57;1.40;;;13.20;99.90;;;;;;5061598;28;20647;-58
2023/08/04 02:17:04;;;;;;;1.83;1.73;;;13.10;99.90;;;;;;5060573;28;20167;-58
2023/08/04 02:19:30;;;;;;;1.70;1.40;;;13.10;99.90;;;;;;5063425;28;20159;-59
2023/08/04 02:21:55;;;;;;;3.03;1.67;;;13.10;99.90;;;;;;5056616;28;20240;-59
2023/08/04 02:24:21;;;;;;;1.53;1.30;;;13.10;99.90;;;;;;5063299;28;20205;-59
2023/08/04 02:26:46;;;;;;;4.63;1.40;;;13.10;99.90;;;;;;5060371;28;20221;-59
2023/08/04 02:29:13;;;;;;;2.50;1.50;;;13.10;99.90;;;;;;5060441;28;20185;-61
2023/08/04 02:31:39;;;;;;;2.13;1.43;;;13.10;99.90;;;;;;5066743;28;20209;-59
2023/08/04 02:34:04;;;;;;;3.03;1.70;;;13.10;99.90;;;;;;5059075;28;20925;-59
2023/08/04 02:36:30;;;;;;;2.60;1.20;;;13.20;99.90;;;;;;5053271;28;20428;-60
2023/08/04 02:38:56;;;;;;;3.37;1.80;;;13.10;99.90;;;;;;5060462;28;20166;-59
2023/08/04 02:41:21;;;;;;;6.70;2.10;;;13.10;99.90;;;;;;5056456;28;20175;-58
2023/08/04 02:43:47;;;;;;;1.87;1.70;;;13.00;99.90;;;;;;5061282;28;20206;-58
2023/08/04 02:46:13;;;;;;;1.50;1.40;;;13.00;99.90;;;;;;5065102;28;20185;-60
2023/08/04 02:48:39;;;;;;;1.93;1.53;;;13.00;99.90;;;;;;5063569;28;20324;-58
2023/08/04 02:51:06;;;;;;;2.50;1.70;;;13.00;99.90;;;;;;5059964;28;20730;-60
2023/08/04 02:53:33;;;;;;;1.57;1.40;;;13.00;99.90;;;;;;5058996;28;20479;-59
2023/08/04 02:56:00;;;;;;;2.23;1.60;;;13.10;99.90;;;;;;5060646;28;20424;-61
2023/08/04 02:58:26;;;;;;;1.80;1.50;;;13.10;99.90;;;;;;5056352;28;20476;-60
2023/08/04 03:00:53;;;;;;;1.70;1.57;;;13.10;99.90;;;;;;5060597;28;20810;-60
2023/08/04 03:03:18;;;;;;;1.77;1.67;;;13.10;99.90;;;;;;5060377;28;20467;-59
2023/08/04 03:05:44;;;;;;;1.80;1.67;;;13.20;99.90;;;;;;5064339;28;20785;-59
2023/08/04 03:08:10;;;;;;;3.63;1.50;;;13.20;99.90;;;;;;5060001;28;20251;-60
2023/08/04 03:10:40;;;;;;;2.07;1.60;;;13.20;99.90;;;;;;5057865;28;20307;-60
2023/08/04 03:13:06;;;;;;;4.27;2.07;;;13.20;99.90;;;;;;5062524;28;20206;-60
2023/08/04 03:15:31;;;;;;;4.10;1.47;;;13.20;99.90;;;;;;5058406;28;20448;-59
2023/08/04 03:17:57;;;;;;;2.60;1.40;;;13.10;99.90;;;;;;5060594;28;20179;-60
2023/08/04 03:20:22;;;;;;;2.60;1.40;;;13.20;99.90;;;;;;5062039;28;20175;-60
2023/08/04 03:22:48;;;;;;;3.80;1.50;;;13.10;99.90;;;;;;5063498;28;20556;-58
2023/08/04 03:25:14;;;;;;;1.83;1.60;;;13.10;99.90;;;;;;5059974;28;20174;-59
2023/08/04 03:27:39;;;;;;;2.20;1.53;;;13.10;99.90;;;;;;5051439;28;20179;-56
2023/08/04 03:30:05;;;;;;;2.33;1.50;;;13.10;99.90;;;;;;5061550;28;20186;-61
2023/08/04 03:32:31;;;;;;;3.63;1.67;;;13.10;99.90;;;;;;5061861;28;20214;-60
2023/08/04 03:34:57;;;;;;;1.60;1.50;;;13.10;99.90;;;;;;5060736;28;20428;-60
2023/08/04 03:37:22;;;;;;;3.37;1.87;;;13.10;99.90;;;;;;5059610;28;20178;-60
2023/08/04 03:39:48;;;;;;;3.10;1.50;;;13.00;99.90;;;;;;5060406;28;20170;-59
2023/08/04 03:42:13;;;;;;;3.13;1.63;;;13.00;99.90;;;;;;5067789;28;20593;-60
2023/08/04 03:44:39;;;;;;;4.10;1.70;;;13.10;99.90;;;;;;5064241;28;20166;-62
2023/08/04 03:47:05;;;;;;;1.40;1.30;;;13.10;99.90;;;;;;5063174;28;20605;-61
2023/08/04 03:49:31;;;;;;;5.33;1.50;;;13.10;99.90;;;;;;5060348;28;20574;-61
2023/08/04 03:51:56;;;;;;;2.23;1.77;;;13.10;99.90;;;;;;5063482;28;20475;-60
2023/08/04 03:54:22;;;;;;;6.50;2.17;;;13.20;99.90;;;;;;5059743;28;20262;-56
2023/08/04 03:56:47;;;;;;;4.17;1.60;;;13.10;99.90;;;;;;5057974;28;20221;-60
2023/08/04 03:59:13;;;;;;;2.20;1.60;;;13.10;99.90;;;;;;5060876;28;20698;-59
2023/08/04 04:01:39;;;;;;;4.00;1.80;;;13.10;99.90;;;;;;5067582;28;20203;-61
2023/08/04 04:04:04;;;;;;;4.57;1.70;;;13.10;99.90;;;;;;5063630;28;20603;-60
2023/08/04 04:06:30;;;;;;;2.13;1.53;;;13.10;99.90;;;;;;5057611;28;20678;-60
2023/08/04 04:08:56;;;;;;;3.97;2.07;;;13.10;99.90;;;;;;5061746;28;20221;-60
2023/08/04 04:11:21;;;;;;;3.13;1.77;;;13.00;99.90;;;;;;5056231;28;20179;-61
2023/08/04 04:13:47;;;;;;;4.30;1.87;;;13.00;99.90;;;;;;5060581;28;20207;-61
2023/08/04 04:16:12;;;;;;;2.30;1.60;;;13.00;99.90;;;;;;5064153;28;20175;-61
2023/08/04 04:18:38;;;;;;;1.80;1.40;;;13.00;99.90;;;;;;5061366;28;20175;-62
2023/08/04 04:21:03;;;;;;;1.67;1.57;;;12.90;99.90;;;;;;5056473;28;21793;-61
2023/08/04 04:23:29;;;;;;;2.83;1.70;;;13.00;99.90;;;;;;5061338;28;20210;-61
2023/08/04 04:25:55;;;;;;;1.80;1.67;;;13.00;99.90;;;;;;5062668;28;20187;-60
2023/08/04 04:28:20;;;;;;;3.83;2.10;;;13.00;99.90;;;;;;5057504;28;20305;-59
2023/08/04 04:30:46;;;;;;;2.30;1.67;;;13.10;99.90;;;;;;5059166;28;20836;-59
2023/08/04 04:33:11;;;;;;;1.83;1.60;;;13.10;99.90;;;;;;5062677;28;20214;-59
2023/08/04 04:35:37;;;;;;;4.70;1.83;;;13.10;99.90;;;;;;5061477;28;20179;-59
2023/08/04 04:38:02;;;;;;;1.83;1.70;;;13.10;99.90;;;;;;5050518;28;20604;-59
2023/08/04 04:40:28;;;;;;;2.80;1.80;;;13.10;99.90;;;;;;5052669;28;20190;-57
2023/08/04 04:42:54;;;;;;;2.90;1.80;;;13.20;99.90;;;;;;5057337;28;20576;-59
2023/08/04 04:45:19;;;;;;;6.27;1.93;;;13.20;99.90;;;;;;5058284;28;20834;-60
2023/08/04 04:47:45;;;;;;;4.13;1.70;;;13.20;99.90;;;;;;5059823;28;20178;-58
2023/08/04 04:50:11;;;;;;;3.73;1.90;;;13.30;99.90;;;;;;5055265;28;20190;-58
2023/08/04 04:52:37;;;;;;;4.50;1.50;;;13.30;99.90;;;;;;5063536;28;20452;-58
2023/08/04 04:55:04;;;;;;;1.97;1.53;;;13.30;99.90;;;;;;5063557;28;20248;-59
2023/08/04 04:57:30;;;;;;;3.70;1.80;;;13.40;99.90;;;;;;5062311;28;20440;-58
2023/08/04 04:59:56;;;;;;;2.17;1.60;;;13.40;99.90;;;;;;5060346;28;20467;-58
2023/08/04 05:02:22;;;;;;;2.77;2.23;;;13.40;99.90;;;;;;5063724;28;20545;-57
2023/08/04 05:04:48;;;;;;;2.33;1.83;;;13.50;99.90;;;;;;5060126;28;20177;-58
2023/08/04 05:07:13;;;;;;;6.63;2.00;;;13.50;99.90;;;;;;5050275;28;20179;-59
2023/08/04 05:09:40;;;;;;;1.90;1.80;;;13.50;99.90;;;;;;5058213;28;20433;-59
2023/08/04 05:12:06;;;;;;;4.03;1.90;;;13.50;99.90;;;;;;5060121;28;20210;-60
2023/08/04 05:14:34;;;;;;;4.43;2.10;;;13.50;99.90;;;;;;5058275;28;21027;-60
2023/08/04 05:16:59;;;;;;;2.50;1.93;;;13.50;99.90;;;;;;5062051;28;20455;-61
2023/08/04 05:19:25;;;;;;;5.73;2.30;;;13.50;99.90;;;;;;5064238;28;20437;-61
2023/08/04 05:21:51;;;;;;;2.90;2.00;;;13.50;99.90;;;;;;5068209;28;20198;-61
2023/08/04 05:24:16;;;;;;;4.60;1.57;;;13.50;99.90;;;;;;5070123;28;20204;-61
2023/08/04 05:26:42;;;;;;;6.10;2.30;;;13.50;99.90;;;;;;5058261;28;20526;-61
2023/08/04 05:29:07;;;;;;;1.50;1.40;;;13.60;99.90;;;;;;5060443;28;20200;-59
2023/08/04 05:31:33;;;;;;;2.70;1.50;;;13.70;99.90;;;;;;5067480;28;20546;-60
2023/08/04 05:34:00;;;;;;;1.73;1.40;;;13.80;99.90;;;;;;5065811;28;20203;-60
2023/08/04 05:36:26;;;;;;;3.17;1.73;;;13.90;99.90;;;;;;5059027;28;20187;-60
2023/08/04 05:38:52;;;;;;;3.87;1.70;;;14.00;99.90;;;;;;5057352;28;20439;-61
2023/08/04 05:41:18;;;;;;;1.80;1.70;;;14.00;99.90;;;;;;5059976;28;20202;-60
2023/08/04 05:43:43;;;;;;;4.13;1.90;;;14.10;99.90;;;;;;5061214;28;20573;-60
2023/08/04 05:46:12;;;;;;;1.83;1.70;;;14.00;99.90;;;;;;5059179;28;20232;-61
2023/08/04 05:48:38;;;;;;;3.30;2.07;;;14.10;99.90;;;;;;5061945;28;20520;-60
2023/08/04 05:51:04;;;;;;;2.43;1.83;;;14.20;99.90;;;;;;5061228;28;20474;-59
2023/08/04 05:53:30;;;;;;;7.83;1.90;;;14.20;99.90;;;;;;5060761;28;20469;-60
2023/08/04 05:55:55;;;;;;;4.57;1.57;;;14.30;99.90;;;;;;5067163;28;20535;-60
2023/08/04 05:58:21;;;;;;;2.47;1.80;;;14.30;99.90;;;;;;5062006;28;20583;-60
2023/08/04 06:00:47;;;;;;;2.10;1.80;;;14.30;99.90;;;;;;5060459;28;20182;-60
2023/08/04 06:03:12;;;;;;;4.53;1.90;;;14.40;99.90;;;;;;5066895;28;20233;-60
2023/08/04 06:05:38;;;;;;;9.30;1.70;;;14.40;99.90;;;;;;5064203;28;20618;-59
2023/08/04 06:08:04;;;;;;;3.30;2.23;;;14.40;99.90;;;;;;5059572;28;20182;-59
2023/08/04 06:10:29;;;;;;;2.43;1.47;;;14.40;99.90;;;;;;5064979;28;20186;-60
2023/08/04 06:12:55;;;;;;;3.73;1.80;;;14.40;99.90;;;;;;5065408;28;20203;-58
2023/08/04 06:15:21;;;;;;;6.20;2.47;;;14.40;99.90;;;;;;5061902;28;20278;-59
2023/08/04 06:17:47;;;;;;;4.13;2.20;;;14.40;99.90;;;;;;5061209;28;20235;-59
2023/08/04 06:20:12;;;;;;;6.90;2.17;;;14.50;99.90;;;;;;5060808;28;21201;-60
2023/08/04 06:22:38;;;;;;;7.63;2.23;;;14.50;99.90;;;;;;5060477;28;20289;-59
2023/08/04 06:25:05;;;;;;;3.03;1.70;;;14.50;99.90;;;;;;5061334;28;20189;-58
2023/08/04 06:27:31;;;;;;;3.63;2.30;;;14.60;99.90;;;;;;5062604;28;21064;-59
2023/08/04 06:29:58;;;;;;;4.50;2.30;;;14.80;99.90;;;;;;5061190;28;21108;-59
2023/08/04 06:32:24;;;;;;;7.33;2.30;;;15.00;99.90;;;;;;5058755;28;20825;-60
2023/08/04 06:34:50;;;;;;;4.60;2.10;;;15.20;99.90;;;;;;5056771;28;20468;-53
2023/08/04 06:37:16;;;;;;;4.90;2.30;;;15.30;99.90;;;;;;5051743;28;20513;-53
2023/08/04 06:39:41;;;;;;;4.60;2.87;;;15.40;99.90;;;;;;5057894;28;20264;-60
2023/08/04 06:42:07;;;;;;;12.93;2.30;;;15.50;99.90;;;;;;5055147;28;20621;-58
2023/08/04 06:44:32;;;;;;;5.63;2.30;;;15.50;99.90;;;;;;5060913;28;20213;-58
2023/08/04 06:46:58;;;;;;;3.73;2.30;;;15.50;99.90;;;;;;5061818;28;20714;-59
2023/08/04 06:49:23;;;;;;;4.07;2.20;;;15.50;99.90;;;;;;5059982;28;20694;-58
2023/08/04 06:51:49;;;;;;;7.97;3.37;;;15.50;99.90;;;;;;5059111;28;20209;-59
2023/08/04 06:54:16;;;;;;;2.83;1.70;;;15.50;99.90;;;;;;5061204;28;20393;-57
2023/08/04 06:56:42;;;;;;;2.97;2.20;;;15.50;99.90;;;;;;5061582;28;20182;-59
2023/08/04 06:59:07;;;;;;;2.47;1.87;;;15.50;99.90;;;;;;5060476;28;20429;-59
2023/08/04 07:01:33;;;;;;;4.47;1.80;;;15.60;99.90;;;;;;5059427;28;20733;-59
2023/08/04 07:03:58;;;;;;;4.50;2.10;;;15.70;99.90;;;;;;5057495;28;20202;-59
2023/08/04 07:06:24;;;;;;;4.17;2.17;;;15.80;99.90;;;;;;5064789;28;20170;-58
2023/08/04 07:08:50;;;;;;;6.53;2.33;;;16.00;99.90;;;;;;5065041;28;20178;-58
2023/08/04 07:11:17;;;;;;;3.70;1.97;;;16.10;99.90;;;;;;5062502;28;20175;-59
2023/08/04 07:13:46;;;;;;;6.30;2.53;;;16.30;99.90;;;;;;5059002;28;20264;-59
2023/08/04 07:16:12;;;;;;;2.93;1.60;;;16.50;99.90;;;;;;5060175;28;20541;-59
2023/08/04 07:18:38;;;;;;;3.47;1.50;;;16.70;99.90;;;;;;5061648;28;21068;-58
2023/08/04 07:21:08;;;;;;;1.50;1.27;;;16.90;99.80;;;;;;5061513;28;20663;-58
2023/08/04 07:23:34;;;;;;;1.63;1.30;;;16.90;94.30;;;;;;5062997;28;20498;-59
2023/08/04 07:26:00;;;;;;;3.10;2.07;;;16.90;95.40;;;;;;5062596;28;20445;-59
2023/08/04 07:28:25;;;;;;;4.83;2.63;;;16.90;92.00;;;;;;5062153;28;20190;-59
2023/08/04 07:30:51;;;;;;;4.17;1.40;;;16.80;93.90;;;;;;5064856;28;20237;-60
2023/08/04 07:33:16;;;;;;;3.73;1.20;;;16.80;94.00;;;;;;5069917;28;20319;-60
2023/08/04 07:35:42;;;;;;;1.90;1.23;;;16.80;95.90;;;;;;5068685;28;20803;-59
2023/08/04 07:38:08;;;;;;;1.60;1.00;;;16.80;95.60;;;;;;5062803;28;20178;-58
2023/08/04 07:40:38;;;;;;;2.87;1.00;;;16.80;95.40;;;;;;5058843;28;20187;-59
2023/08/04 07:43:05;;;;;;;1.87;1.20;;;16.80;93.60;;;;;;5061660;28;20245;-59
2023/08/04 07:45:35;;;;;;;1.13;0.93;;;16.90;92.40;;;;;;5067838;28;21084;-59
2023/08/04 07:48:01;;;;;;;1.90;1.27;;;17.00;91.90;;;;;;5064928;28;20463;-59
2023/08/04 07:50:26;;;;;;;1.77;1.30;;;17.10;87.60;;;;;;5065529;28;20871;-59
2023/08/04 07:52:52;;;;;;;2.90;1.10;;;17.10;87.00;;;;;;5065021;28;20202;-60
2023/08/04 07:55:17;;;;;;;2.23;1.17;;;17.10;88.30;;;;;;5063512;28;20182;-59
2023/08/04 07:57:43;;;;;;;5.67;1.00;;;17.10;87.90;;;;;;5061688;28;20647;-60
2023/08/04 08:00:09;;;;;;;1.37;1.10;;;17.20;87.60;;;;;;5065669;28;20728;-60
2023/08/04 08:02:35;;;;;;;1.20;1.10;;;17.20;86.20;;;;;;5067735;28;20214;-61
2023/08/04 08:05:01;;;;;;;4.13;1.10;;;17.20;87.30;;;;;;5062800;28;20437;-59
2023/08/04 08:07:26;;;;;;;4.10;1.27;;;17.20;90.40;;;;;;5064189;28;20216;-60
2023/08/04 08:09:52;;;;;;;2.70;1.10;;;17.20;91.10;;;;;;5066788;28;20220;-60
2023/08/04 08:12:17;;;;;;;2.27;1.00;;;17.20;91.00;;;;;;5065698;28;20642;-60
2023/08/04 08:14:43;;;;;;;1.73;1.17;;;17.20;90.20;;;;;;5067186;28;20188;-60
2023/08/04 08:17:09;;;;;;;2.07;1.30;;;17.10;91.60;;;;;;5065227;28;20588;-60
2023/08/04 08:19:34;;;;;;;4.13;1.93;;;17.20;92.30;;;;;;5066761;28;20174;-59
2023/08/04 08:22:00;;;;;;;1.30;1.10;;;17.20;92.50;;;;;;5060109;28;20210;-62
2023/08/04 08:24:26;;;;;;;5.40;1.63;;;17.30;91.40;;;;;;5067348;28;20198;-60
2023/08/04 08:26:51;;;;;;;1.80;1.07;;;17.20;90.90;;;;;;5063035;28;20236;-60
2023/08/04 08:29:17;;;;;;;1.80;1.13;;;17.20;91.00;;;;;;5060517;28;20952;-59
2023/08/04 08:31:43;;;;;;;2.93;1.13;;;17.20;89.30;;;;;;5061126;28;20182;-61
2023/08/04 08:34:09;;;;;;;1.77;1.10;;;17.10;90.40;;;;;;5065095;28;20209;-62
2023/08/04 08:36:35;;;;;;;1.67;1.10;;;17.10;91.40;;;;;;5067046;28;20214;-61
2023/08/04 08:39:01;;;;;;;4.70;1.67;;;17.10;91.40;;;;;;5042167;28;20911;-58
2023/08/04 08:41:26;;;;;;;1.37;1.00;;;17.10;93.20;;;;;;5064962;28;20675;-60
2023/08/04 08:43:52;;;;;;;3.43;1.57;;;17.10;96.10;;;;;;5056467;28;20702;-54
2023/08/04 08:46:18;;;;;;;3.17;2.03;;;17.00;99.90;;;;;;5059341;28;20235;-61
2023/08/04 08:48:45;;;;;;;2.93;1.50;;;17.00;99.90;;;;;;5059961;28;20428;-60
2023/08/04 08:51:18;;;;;;;2.73;1.27;;;16.90;99.90;;;;;;5061323;28;20663;-60
2023/08/04 08:53:46;;;;;;;1.20;1.10;;;16.90;99.90;;;;;;5060652;28;20550;-61
2023/08/04 08:56:13;;;;;;;1.27;1.10;;;16.90;99.90;;;;;;5065376;28;20459;-61
2023/08/04 08:58:40;;;;;;;1.43;0.93;;;16.80;99.90;;;;;;5063186;28;21296;-60
2023/08/04 09:01:06;;;;;;;1.87;0.90;;;16.80;99.90;;;;;;5057173;28;20506;-60
2023/08/04 09:03:35;;;;;;;1.53;1.00;;;16.80;99.90;;;;;;5056503;28;20460;-59
2023/08/04 09:06:00;;;;;;;1.57;0.80;;;16.80;99.90;;;;;;5061080;28;20182;-59
2023/08/04 09:08:28;;;;;;;1.33;1.13;;;16.90;99.90;;;;;;5066959;28;20432;-59
2023/08/04 09:10:53;;;;;;;2.23;1.00;;;17.00;99.90;;;;;;5064338;28;20175;-60
2023/08/04 09:13:19;;;;;;;2.80;1.10;;;17.00;99.90;;;;;;5052099;28;20506;-60
2023/08/04 09:15:53;;;;;;;1.47;1.00;;;17.10;99.90;;;;;;5066477;28;20209;-60
2023/08/04 09:18:37;;;;;;;1.30;1.10;;;17.20;99.90;;;;;;5059654;28;20536;-66
2023/08/04 09:21:12;;;;;;;1.53;1.17;;;17.30;99.90;;;;;;5062938;28;20845;-60
2023/08/04 09:23:52;;;;;;;2.00;1.20;;;17.40;99.90;;;;;;5067715;28;20464;-61
2023/08/04 09:26:17;;;;;;;1.57;1.07;;;17.50;99.60;;;;;;5067846;28;20852;-59
2023/08/04 09:28:43;;;;;;;1.57;1.10;;;17.60;99.90;;;;;;5064818;28;20433;-58
2023/08/04 09:31:10;;;;;;;3.13;1.43;;;17.80;99.90;;;;;;5058471;28;20174;-59
2023/08/04 09:33:41;;;;;;;2.70;1.40;;;18.10;99.30;;;;;;5059712;28;20202;-59
2023/08/04 09:36:17;;;;;;;1.53;1.20;;;18.30;95.00;;;;;;5055299;28;20440;-58
2023/08/04 09:38:43;;;;;;;1.53;1.13;;;18.30;88.10;;;;;;5055144;28;20451;-60
2023/08/04 09:41:10;;;;;;;3.13;1.20;;;18.30;90.10;;;;;;5061725;28;20428;-59
2023/08/04 09:43:47;;;;;;;1.73;1.00;;;18.50;85.50;;;;;;5071561;28;20206;-59
2023/08/04 09:46:14;;;;;;;3.37;0.83;;;18.60;81.60;;;;;;5074652;28;20436;-57
2023/08/04 09:48:39;;;;;;;1.90;1.07;;;18.60;78.70;;;;;;5064965;28;20871;-55
2023/08/04 09:51:08;;;;;;;1.20;0.80;;;18.70;78.90;;;;;;5065457;28;20508;-57
2023/08/04 09:53:48;;;;;;;0.70;0.70;;;18.90;76.70;;;;;;5055463;28;20199;-56
2023/08/04 09:56:17;;;;;;;1.33;1.00;;;19.10;73.30;;;;;;5057311;28;20437;-58
2023/08/04 09:58:44;;;;;;;0.70;0.70;;;19.30;67.90;;;;;;5060759;28;20436;-56
2023/08/04 10:01:09;;;;;;;3.67;0.90;;;19.40;63.30;;;;;;5060854;28;20433;-58
2023/08/04 10:03:39;;;;;;;0.80;0.80;;;19.30;64.50;;;;;;5060202;28;20514;-57
2023/08/04 10:06:06;;;;;;;1.53;0.70;;;19.40;65.30;;;;;;5062245;28;20204;-57
2023/08/04 10:08:33;;;;;;;0.90;0.60;;;19.60;66.20;;;;;;5057234;28;20421;-57
2023/08/04 10:10:59;;;;;;;2.30;0.80;;;19.70;60.20;;;;;;5058606;28;20421;-59
2023/08/04 10:13:27;;;;;;;0.73;0.60;;;19.80;60.90;;;;;;5058334;28;20460;-60
2023/08/04 10:15:56;;;;;;;0.70;0.70;;;19.90;60.70;;;;;;5056479;28;20428;-59
2023/08/04 10:18:23;;;;;;;2.20;0.80;;;20.00;58.70;;;;;;5058347;28;20521;-59
2023/08/04 10:20:51;;;;;;;2.60;1.03;;;20.10;59.90;;;;;;5061540;28;20932;-60
2023/08/04 10:23:17;;;;;;;0.80;0.70;;;20.40;61.00;;;;;;5061655;28;20465;-60
2023/08/04 10:25:59;;;;;;;4.63;0.70;;;20.60;60.70;;;;;;5059047;28;20425;-61
2023/08/04 10:28:25;;;;;;;1.70;0.63;;;20.60;59.30;;;;;;5061764;28;20677;-60
2023/08/04 10:31:11;;;;;;;1.10;0.80;;;20.60;57.30;;;;;;5056364;28;20421;-61
2023/08/04 10:33:37;;;;;;;0.80;0.70;;;20.70;57.70;;;;;;5059890;28;20229;-59
2023/08/04 10:36:08;;;;;;;0.70;0.60;;;20.80;57.70;;;;;;5054575;28;20529;-59
2023/08/04 10:38:44;;;;;;;0.90;0.80;;;20.80;57.30;;;;;;5059806;28;20433;-59
2023/08/04 10:41:10;;;;;;;1.57;0.80;;;20.70;57.30;;;;;;5062781;28;20482;-59
2023/08/04 10:43:38;;;;;;;1.83;0.80;;;20.40;57.90;;;;;;5058264;28;20840;-59
2023/08/04 10:46:10;;;;;;;0.87;0.77;;;20.20;58.30;;;;;;5058310;28;20178;-57
2023/08/04 10:48:38;;;;;;;3.53;1.10;;;20.00;59.10;;;;;;5053743;28;20457;-57
2023/08/04 10:51:05;;;;;;;4.90;0.80;;;19.90;59.70;;;;;;5058077;28;20429;-58
2023/08/04 10:53:30;;;;;;;0.87;0.70;;;19.70;59.80;;;;;;5058657;28;20519;-58
2023/08/04 10:55:58;;;;;;;0.60;0.60;;;19.60;60.50;;;;;;5064707;28;21113;-57
2023/08/04 10:58:25;;;;;;;0.90;0.90;;;19.50;61.00;;;;;;5058352;28;20170;-59
2023/08/04 11:00:52;;;;;;;1.27;1.00;;;19.50;61.50;;;;;;5056487;28;20428;-59
2023/08/04 11:03:23;;;;;;;1.00;0.90;;;19.70;61.60;;;;;;5060189;28;20831;-58
2023/08/04 11:05:50;;;;;;;1.20;1.10;;;20.00;61.60;;;;;;5059448;28;20462;-57
2023/08/04 11:08:17;;;;;;;2.33;1.00;;;20.30;61.10;;;;;;5063558;28;20463;-57
2023/08/04 11:10:51;;;;;;;2.67;1.10;;;20.40;59.60;;;;;;5062084;28;20421;-58
2023/08/04 11:13:19;;;;;;;1.67;0.80;;;20.30;58.40;;;;;;5065260;28;20445;-57
2023/08/04 11:15:45;;;;;;;1.10;0.80;;;20.10;58.70;;;;;;5066342;28;20435;-58
2023/08/04 11:18:26;;;;;;;0.60;0.60;;;19.90;59.70;;;;;;5060214;28;20432;-57
2023/08/04 11:20:52;;;;;;;1.57;0.77;;;19.70;61.10;;;;;;5063132;28;20485;-57
2023/08/04 11:23:27;;;;;;;0.70;0.70;;;19.50;61.70;;;;;;5053193;28;20944;-57
2023/08/04 11:25:54;;;;;;;3.40;0.73;;;19.30;64.40;;;;;;5055961;28;20428;-56
2023/08/04 11:28:20;;;;;;;7.87;1.10;;;19.10;66.30;;;;;;5056545;28;20489;-56
2023/08/04 11:30:46;;;;;;;2.17;0.87;;;18.90;68.40;;;;;;5060664;28;20528;-56
2023/08/04 11:33:11;;;;;;;5.90;1.10;;;18.70;76.10;;;;;;5055454;28;20538;-56
2023/08/04 11:35:38;;;;;;;2.37;1.10;;;18.40;85.90;;;;;;5063417;28;20678;-57
2023/08/04 11:38:03;;;;;;;2.03;1.00;;;18.00;93.20;;;;;;5058645;28;20265;-56
2023/08/04 11:40:30;;;;;;;2.97;1.27;;;17.70;99.00;;;;;;5057465;28;20904;-57
2023/08/04 11:43:00;;;;;;;5.70;1.20;;;17.40;99.90;;;;;;5057008;28;20206;-55
2023/08/04 11:45:30;;;;;;;1.87;1.00;;;17.20;99.90;;;;;;5061439;28;20456;-57
2023/08/04 11:47:57;;;;;;;1.50;0.97;;;17.00;99.90;;;;;;5064526;28;20505;-57
2023/08/04 11:50:24;;;;;;;1.43;1.03;;;16.90;99.90;;;;;;5060782;28;20457;-57
2023/08/04 11:52:51;;;;;;;3.27;0.83;;;16.90;99.90;;;;;;5063735;28;20462;-57
2023/08/04 11:55:16;;;;;;;3.67;1.17;;;16.90;99.90;;;;;;5062464;28;20458;-58
2023/08/04 11:57:52;;;;;;;0.83;0.80;;;17.10;99.90;;;;;;5057360;28;21089;-57
2023/08/04 12:00:32;;;;;;;1.93;1.07;;;17.30;99.90;;;;;;5057783;28;21554;-55
2023/08/04 12:02:59;;;;;;;1.00;0.80;;;17.60;99.90;;;;;;5061378;28;20550;-61
2023/08/04 12:05:32;;;;;;;1.63;0.80;;;17.90;99.90;;;;;;5053653;28;20445;-59
2023/08/04 12:08:12;;;;;;;3.23;1.20;;;18.10;99.90;;;;;;5060224;28;20491;-57
2023/08/04 12:10:37;;;;;;;0.70;0.70;;;18.40;99.90;;;;;;5058412;28;20425;-58
2023/08/04 12:13:03;;;;;;;0.83;0.80;;;19.00;99.90;;;;;;5062078;28;20464;-59
2023/08/04 12:15:29;;;;;;;0.80;0.80;;;19.50;99.90;;;;;;5063321;28;20198;-58
2023/08/04 12:17:55;;;;;;;0.70;0.70;;;19.90;99.90;;;;;;5054729;28;20541;-59
2023/08/04 12:20:20;;;;;;;0.77;0.77;;;20.30;99.90;;;;;;5057661;28;20257;-59
2023/08/04 12:22:46;;;;;;;0.57;0.50;;;20.70;92.90;;;;;;5059517;28;20218;-56
2023/08/04 12:25:13;;;;;;;1.10;0.70;;;20.70;90.40;;;;;;5066468;28;20185;-56
2023/08/04 12:27:40;;;;;;;1.43;0.60;;;20.50;82.50;;;;;;5067056;28;20204;-56
2023/08/04 12:30:06;;;;;;;1.13;0.77;;;20.40;83.70;;;;;;5059227;28;20525;-56
2023/08/04 12:32:31;;;;;;;5.07;0.73;;;20.50;85.40;;;;;;5061816;28;20547;-56
2023/08/04 12:34:57;;;;;;;0.70;0.60;;;20.80;89.60;;;;;;5062227;28;21273;-55
2023/08/04 12:37:25;;;;;;;1.57;0.70;;;21.10;91.30;;;;;;5059543;28;20695;-55
2023/08/04 12:39:51;;;;;;;0.60;0.60;;;21.20;77.70;;;;;;5059826;28;20428;-56
2023/08/04 12:42:16;;;;;;;0.93;0.60;;;21.10;78.40;;;;;;5060677;28;20440;-55
2023/08/04 12:44:42;;;;;;;0.70;0.70;;;20.90;79.40;;;;;;5065426;28;20747;-55